Time;durP1;ratioP1;P1;durP2;ratioP2;P2;SDS_P1;SDS_P2;PMS_P1;PMS_P2;Temp;Humidity;BMP_temperature;BMP_pressure;BME280_temperature;BME280_humidity;BME280_pressure;Samples;Min_cycle;Max_cycle;Signal;HPM_P1;HPM_P2
2020/12/28 00:00:48;;;;;;;68.57;38.22;;;4.10;95.90;;;;;;5095053;28;20031;-70
2020/12/28 00:03:14;;;;;;;54.00;31.10;;;4.10;95.90;;;;;;5094086;28;20030;-71
2020/12/28 00:05:39;;;;;;;62.28;35.15;;;4.10;96.00;;;;;;5093315;28;20464;-70
2020/12/28 00:08:05;;;;;;;70.07;38.97;;;4.10;96.00;;;;;;5093669;28;20085;-72
2020/12/28 00:10:31;;;;;;;49.53;32.85;;;4.10;96.00;;;;;;5093649;28;20023;-71
2020/12/28 00:12:57;;;;;;;42.40;26.15;;;4.10;96.00;;;;;;5093850;28;20356;-71
2020/12/28 00:15:29;;;;;;;41.08;24.75;;;4.10;96.40;;;;;;5094087;28;20452;-70
2020/12/28 00:17:57;;;;;;;27.90;15.57;;;4.10;96.30;;;;;;5093413;28;20379;-72
2020/12/28 00:20:25;;;;;;;16.48;10.25;;;4.10;96.40;;;;;;5093708;28;20460;-72
2020/12/28 00:22:51;;;;;;;25.35;15.40;;;4.10;96.80;;;;;;5093645;28;20483;-70
2020/12/28 00:25:28;;;;;;;20.85;12.57;;;4.00;96.50;;;;;;5093070;28;20032;-72
2020/12/28 00:27:55;;;;;;;18.15;10.52;;;4.10;96.60;;;;;;5093431;28;20038;-72
2020/12/28 00:30:21;;;;;;;21.38;13.60;;;4.10;96.50;;;;;;5093209;28;20043;-69
2020/12/28 00:32:47;;;;;;;25.73;15.45;;;4.10;96.50;;;;;;5093406;28;20035;-70
2020/12/28 00:35:14;;;;;;;26.10;14.68;;;4.10;96.50;;;;;;5093427;28;20111;-74
2020/12/28 00:37:40;;;;;;;20.90;13.00;;;4.20;96.50;;;;;;5093107;28;20032;-71
2020/12/28 00:40:08;;;;;;;31.10;20.50;;;4.20;96.60;;;;;;5093515;28;20020;-72
2020/12/28 00:42:34;;;;;;;58.00;34.17;;;4.20;96.50;;;;;;5094869;28;20028;-71
2020/12/28 00:44:59;;;;;;;41.13;20.83;;;4.30;96.50;;;;;;5092759;28;20048;-72
2020/12/28 00:47:25;;;;;;;38.28;20.88;;;4.30;96.40;;;;;;5094231;28;20032;-71
2020/12/28 00:49:51;;;;;;;41.47;21.67;;;4.30;96.30;;;;;;5093169;28;20487;-71
2020/12/28 00:52:17;;;;;;;28.20;14.52;;;4.40;96.20;;;;;;5092836;28;20031;-71
2020/12/28 00:54:43;;;;;;;37.90;20.73;;;4.40;96.10;;;;;;5093096;28;20028;-71
2020/12/28 00:57:09;;;;;;;38.70;20.25;;;4.50;96.00;;;;;;5093257;28;20031;-71
2020/12/28 00:59:34;;;;;;;39.10;23.75;;;4.50;95.90;;;;;;5092726;28;20508;-72
2020/12/28 01:02:01;;;;;;;25.55;15.68;;;4.60;95.80;;;;;;5093784;28;20412;-71
2020/12/28 01:04:26;;;;;;;23.98;14.88;;;4.60;95.80;;;;;;5092968;28;20024;-73
2020/12/28 01:06:52;;;;;;;29.75;14.82;;;4.60;95.70;;;;;;5092682;28;20028;-72
2020/12/28 01:09:19;;;;;;;20.58;12.05;;;4.70;95.70;;;;;;5092895;28;20059;-73
2020/12/28 01:11:45;;;;;;;28.52;15.32;;;4.70;95.50;;;;;;5092880;28;20033;-73
2020/12/28 01:14:14;;;;;;;27.92;13.75;;;4.70;95.40;;;;;;5092610;28;20051;-72
2020/12/28 01:16:43;;;;;;;21.00;12.05;;;4.80;95.30;;;;;;5092841;28;20030;-73
2020/12/28 01:19:09;;;;;;;28.88;15.50;;;4.80;95.20;;;;;;5091496;28;20032;-70
2020/12/28 01:21:35;;;;;;;27.38;13.05;;;4.80;95.20;;;;;;5093944;28;20031;-72
2020/12/28 01:24:00;;;;;;;23.67;12.98;;;4.90;95.20;;;;;;5093703;28;20028;-72
2020/12/28 01:26:26;;;;;;;21.15;12.63;;;4.90;95.00;;;;;;5092391;28;20027;-72
2020/12/28 01:28:52;;;;;;;30.42;17.02;;;5.00;94.90;;;;;;5093571;28;20404;-71
2020/12/28 01:31:18;;;;;;;48.90;27.98;;;5.00;95.00;;;;;;5092637;28;20078;-70
2020/12/28 01:33:44;;;;;;;27.40;17.90;;;5.00;94.90;;;;;;5091964;28;20113;-72
2020/12/28 01:36:10;;;;;;;36.60;22.83;;;5.00;94.80;;;;;;5092544;28;20024;-71
2020/12/28 01:38:36;;;;;;;26.10;15.23;;;5.10;94.70;;;;;;5093850;28;20111;-72
2020/12/28 01:41:02;;;;;;;24.70;15.88;;;5.10;94.70;;;;;;5092253;28;20034;-70
2020/12/28 01:43:28;;;;;;;37.63;23.90;;;5.10;94.70;;;;;;5092553;28;20028;-72
2020/12/28 01:45:55;;;;;;;35.45;22.20;;;5.10;94.70;;;;;;5092613;28;20113;-71
2020/12/28 01:48:21;;;;;;;43.05;26.77;;;5.20;94.60;;;;;;5092380;28;20376;-72
2020/12/28 01:50:47;;;;;;;28.33;15.68;;;5.20;94.50;;;;;;5092397;28;20033;-72
2020/12/28 01:53:14;;;;;;;56.33;35.53;;;5.20;94.50;;;;;;5092372;28;20468;-75
2020/12/28 01:55:44;;;;;;;69.97;43.20;;;5.20;94.50;;;;;;5092094;28;20025;-72
2020/12/28 01:58:10;;;;;;;57.25;34.53;;;5.30;94.30;;;;;;5093957;28;20047;-72
2020/12/28 02:00:36;;;;;;;35.15;20.70;;;5.30;94.30;;;;;;5092394;28;20024;-72
2020/12/28 02:03:03;;;;;;;18.52;11.35;;;5.30;94.10;;;;;;5092053;28;20421;-71
2020/12/28 02:05:29;;;;;;;17.85;10.80;;;5.30;94.00;;;;;;5092388;28;20349;-72
2020/12/28 02:07:56;;;;;;;16.38;9.63;;;5.40;94.10;;;;;;5092940;28;20047;-73
2020/12/28 02:10:22;;;;;;;13.95;8.70;;;5.40;93.90;;;;;;5091964;28;20169;-72
2020/12/28 02:12:47;;;;;;;12.70;8.82;;;5.40;93.80;;;;;;5092202;28;20111;-71
2020/12/28 02:15:13;;;;;;;23.95;15.65;;;5.50;93.80;;;;;;5092595;28;20020;-72
2020/12/28 02:17:39;;;;;;;11.02;6.43;;;5.50;93.40;;;;;;5093240;28;20036;-72
2020/12/28 02:20:05;;;;;;;12.20;7.38;;;5.50;93.20;;;;;;5093461;28;20028;-71
2020/12/28 02:22:30;;;;;;;11.27;7.30;;;5.60;93.30;;;;;;5092121;28;20024;-71
2020/12/28 02:24:56;;;;;;;11.38;7.05;;;5.60;93.10;;;;;;5092080;28;20077;-71
2020/12/28 02:27:22;;;;;;;11.50;7.10;;;5.70;92.90;;;;;;5092207;28;20020;-71
2020/12/28 02:29:47;;;;;;;13.05;8.00;;;5.60;93.00;;;;;;5093400;28;20535;-71
2020/12/28 02:32:13;;;;;;;13.10;7.90;;;5.70;93.00;;;;;;5096083;28;20464;-71
2020/12/28 02:34:39;;;;;;;11.05;6.55;;;5.60;93.10;;;;;;5096582;28;20063;-71
2020/12/28 02:37:05;;;;;;;12.90;6.78;;;5.60;93.20;;;;;;5095490;28;20386;-71
2020/12/28 02:39:31;;;;;;;9.40;6.65;;;5.60;93.00;;;;;;5096700;28;20379;-73
2020/12/28 02:41:56;;;;;;;11.43;6.70;;;5.70;93.00;;;;;;5095527;28;20074;-72
2020/12/28 02:44:22;;;;;;;77.18;38.60;;;5.70;93.40;;;;;;5097015;28;20036;-73
2020/12/28 02:46:48;;;;;;;81.47;37.20;;;5.50;93.70;;;;;;5098080;28;20405;-71
2020/12/28 02:49:14;;;;;;;101.50;40.92;;;5.50;93.90;;;;;;5095703;28;20028;-72
2020/12/28 02:51:39;;;;;;;73.90;35.20;;;5.30;94.00;;;;;;5096462;28;20063;-70
2020/12/28 02:54:05;;;;;;;51.05;26.90;;;5.20;94.10;;;;;;5095383;28;20028;-71
2020/12/28 02:56:31;;;;;;;46.63;23.10;;;4.90;94.10;;;;;;5097223;28;20475;-73
2020/12/28 02:58:57;;;;;;;81.97;37.28;;;4.90;94.20;;;;;;5096507;28;20039;-72
2020/12/28 03:01:22;;;;;;;93.35;44.80;;;4.90;94.70;;;;;;5095518;28;20417;-72
2020/12/28 03:03:48;;;;;;;100.88;45.15;;;4.70;94.50;;;;;;5095181;28;20509;-73
2020/12/28 03:06:14;;;;;;;94.05;43.95;;;4.70;95.00;;;;;;5095915;28;20114;-71
2020/12/28 03:08:39;;;;;;;162.90;79.85;;;4.70;95.10;;;;;;5095101;28;20140;-71
2020/12/28 03:11:05;;;;;;;102.60;53.35;;;4.70;95.00;;;;;;5094726;28;20097;-71
2020/12/28 03:13:31;;;;;;;113.25;58.67;;;4.60;94.90;;;;;;5095889;28;20031;-71
2020/12/28 03:15:57;;;;;;;104.75;44.08;;;4.60;95.00;;;;;;5094978;28;20074;-71
2020/12/28 03:18:22;;;;;;;74.40;35.45;;;4.60;95.30;;;;;;5094570;28;20028;-73
2020/12/28 03:20:48;;;;;;;72.97;37.92;;;4.50;95.30;;;;;;5094844;28;20028;-70
2020/12/28 03:23:14;;;;;;;36.75;20.08;;;4.50;95.20;;;;;;5094876;28;20032;-72
2020/12/28 03:25:39;;;;;;;50.00;28.13;;;4.40;95.20;;;;;;5094429;28;20120;-73
2020/12/28 03:28:05;;;;;;;57.72;32.97;;;4.30;95.10;;;;;;5095903;28;20028;-70
2020/12/28 03:30:31;;;;;;;43.25;24.85;;;4.20;95.30;;;;;;5094708;28;20024;-73
2020/12/28 03:32:57;;;;;;;49.38;27.17;;;4.20;95.40;;;;;;5095903;28;20049;-70
2020/12/28 03:35:22;;;;;;;58.65;32.00;;;4.00;95.20;;;;;;5094636;28;20072;-71
2020/12/28 03:37:48;;;;;;;62.10;34.92;;;4.00;95.30;;;;;;5094452;28;20375;-72
2020/12/28 03:40:14;;;;;;;69.07;36.15;;;4.00;95.40;;;;;;5093864;28;20042;-71
2020/12/28 03:42:40;;;;;;;61.38;32.70;;;3.90;95.70;;;;;;5094035;28;20020;-73
2020/12/28 03:45:06;;;;;;;52.03;29.50;;;3.80;95.80;;;;;;5094162;28;20048;-71
2020/12/28 03:47:32;;;;;;;60.47;31.13;;;3.80;95.90;;;;;;5094025;28;20035;-71
2020/12/28 03:49:57;;;;;;;54.72;29.17;;;3.80;95.90;;;;;;5095581;28;20035;-72
2020/12/28 03:52:23;;;;;;;89.97;52.55;;;3.90;95.90;;;;;;5094265;28;20103;-72
2020/12/28 03:54:49;;;;;;;83.82;45.15;;;3.90;95.60;;;;;;5093895;28;20111;-71
2020/12/28 03:57:14;;;;;;;81.93;44.60;;;3.90;95.50;;;;;;5095712;28;20099;-71
2020/12/28 03:59:40;;;;;;;100.90;59.60;;;3.90;95.40;;;;;;5094149;28;20052;-72
2020/12/28 04:02:06;;;;;;;63.67;36.35;;;3.80;95.50;;;;;;5093792;28;20125;-73
2020/12/28 04:04:32;;;;;;;53.15;29.98;;;3.80;95.70;;;;;;5093982;28;20456;-71
2020/12/28 04:06:58;;;;;;;56.20;30.38;;;3.70;95.60;;;;;;5094911;28;20028;-72
2020/12/28 04:09:23;;;;;;;54.90;29.95;;;3.70;95.70;;;;;;5093573;28;20024;-72
2020/12/28 04:11:49;;;;;;;54.35;29.15;;;3.60;95.60;;;;;;5095162;28;20028;-71
2020/12/28 04:14:15;;;;;;;55.80;29.25;;;3.60;95.80;;;;;;5094516;28;20031;-72
2020/12/28 04:16:41;;;;;;;60.40;32.13;;;3.60;96.00;;;;;;5093874;28;20066;-71
2020/12/28 04:19:06;;;;;;;58.30;29.33;;;3.60;95.80;;;;;;5094713;28;20433;-71
2020/12/28 04:21:32;;;;;;;55.28;30.10;;;3.70;95.90;;;;;;5093430;28;20024;-72
2020/12/28 04:23:58;;;;;;;62.15;32.35;;;3.70;95.40;;;;;;5093610;28;20047;-71
2020/12/28 04:26:24;;;;;;;70.63;34.30;;;3.70;95.80;;;;;;5094922;28;20357;-72
2020/12/28 04:28:49;;;;;;;67.10;35.08;;;3.80;95.70;;;;;;5094242;28;20096;-71
2020/12/28 04:31:15;;;;;;;71.63;36.88;;;3.70;95.50;;;;;;5093522;28;20035;-71
2020/12/28 04:33:41;;;;;;;115.47;53.10;;;3.70;95.60;;;;;;5094764;28;20020;-71
2020/12/28 04:36:07;;;;;;;119.18;56.65;;;3.80;95.90;;;;;;5093112;28;20162;-70
2020/12/28 04:38:33;;;;;;;108.82;55.10;;;3.80;95.80;;;;;;5094726;28;20051;-71
2020/12/28 04:40:58;;;;;;;97.15;50.40;;;3.80;95.50;;;;;;5093307;28;20020;-70
2020/12/28 04:43:26;;;;;;;102.70;50.50;;;3.80;95.80;;;;;;5093003;28;20039;-71
2020/12/28 04:46:02;;;;;;;98.28;49.15;;;3.90;95.70;;;;;;5094510;28;20472;-73
2020/12/28 04:48:31;;;;;;;177.13;79.30;;;3.90;95.60;;;;;;5093542;28;20028;-71
2020/12/28 04:50:58;;;;;;;137.25;59.63;;;3.80;95.60;;;;;;5092888;28;20460;-70
2020/12/28 04:53:25;;;;;;;106.93;52.45;;;3.80;95.50;;;;;;5093456;28;20024;-72
2020/12/28 04:55:51;;;;;;;119.45;58.60;;;3.80;95.60;;;;;;5094350;28;20028;-71
2020/12/28 04:58:17;;;;;;;128.55;59.45;;;3.80;95.50;;;;;;5094077;28;20370;-70
2020/12/28 05:00:44;;;;;;;129.43;65.40;;;3.80;95.60;;;;;;5094022;28;20446;-71
2020/12/28 05:03:10;;;;;;;148.65;76.93;;;3.80;95.60;;;;;;5092622;28;20039;-72
2020/12/28 05:05:44;;;;;;;171.10;92.78;;;3.80;95.70;;;;;;5093239;28;20036;-74
2020/12/28 05:08:09;;;;;;;406.92;209.43;;;3.80;95.60;;;;;;5092878;28;20422;-71
2020/12/28 05:10:36;;;;;;;104.53;55.13;;;3.70;95.60;;;;;;5092568;28;20146;-72
2020/12/28 05:13:12;;;;;;;102.95;50.60;;;3.60;95.80;;;;;;5093011;28;20024;-73
2020/12/28 05:15:52;;;;;;;147.20;70.72;;;3.60;96.00;;;;;;5093386;28;20036;-71
2020/12/28 05:18:19;;;;;;;103.20;55.58;;;3.50;96.00;;;;;;5092915;28;20028;-70
2020/12/28 05:20:49;;;;;;;84.57;41.40;;;3.60;96.30;;;;;;5093708;28;20479;-70
2020/12/28 05:23:16;;;;;;;88.05;43.97;;;3.40;96.00;;;;;;5094049;28;20024;-72
2020/12/28 05:25:47;;;;;;;96.78;50.92;;;3.30;96.10;;;;;;5092397;28;20028;-72
2020/12/28 05:28:20;;;;;;;88.97;42.03;;;3.30;96.40;;;;;;5092740;28;20035;-70
2020/12/28 05:30:47;;;;;;;134.30;74.05;;;3.20;96.70;;;;;;5093633;28;20035;-71
2020/12/28 05:33:13;;;;;;;120.53;63.55;;;3.20;96.50;;;;;;5093541;28;20020;-72
2020/12/28 05:35:40;;;;;;;192.52;120.60;;;3.20;96.30;;;;;;5093619;28;20035;-72
2020/12/28 05:38:07;;;;;;;138.10;87.35;;;3.00;96.40;;;;;;5092776;28;20343;-71
2020/12/28 05:40:35;;;;;;;88.22;42.08;;;3.00;96.60;;;;;;5093804;28;20024;-71
2020/12/28 05:43:01;;;;;;;91.53;43.72;;;3.00;96.60;;;;;;5092464;28;20024;-72
2020/12/28 05:45:27;;;;;;;95.93;45.13;;;3.00;96.80;;;;;;5091952;28;20054;-71
2020/12/28 05:47:57;;;;;;;93.18;42.38;;;3.00;96.80;;;;;;5092389;28;20032;-72
2020/12/28 05:50:31;;;;;;;110.53;46.83;;;2.90;96.70;;;;;;5093777;28;20031;-72
2020/12/28 05:53:02;;;;;;;102.18;46.25;;;2.90;96.90;;;;;;5093220;28;20024;-70
2020/12/28 05:55:30;;;;;;;102.45;45.05;;;2.90;96.70;;;;;;5092307;28;20039;-71
2020/12/28 05:57:57;;;;;;;102.13;47.38;;;2.90;96.70;;;;;;5092355;28;20028;-72
2020/12/28 06:00:24;;;;;;;113.20;47.97;;;2.90;96.50;;;;;;5092019;28;20020;-70
2020/12/28 06:02:50;;;;;;;110.80;53.10;;;2.90;96.60;;;;;;5092314;28;20145;-72
2020/12/28 06:05:20;;;;;;;114.80;54.95;;;2.90;96.60;;;;;;5094782;28;20051;-71
2020/12/28 06:07:47;;;;;;;104.70;47.03;;;2.80;96.90;;;;;;5095927;28;20028;-71
2020/12/28 06:10:14;;;;;;;100.00;46.97;;;2.80;96.70;;;;;;5096224;28;20028;-71
2020/12/28 06:12:40;;;;;;;105.82;51.55;;;2.80;96.90;;;;;;5095901;28;20036;-72
2020/12/28 06:15:19;;;;;;;101.47;54.13;;;2.90;96.60;;;;;;5095912;28;20039;-71
2020/12/28 06:17:46;;;;;;;106.95;56.33;;;2.90;96.50;;;;;;5096084;28;20028;-72
2020/12/28 06:20:11;;;;;;;110.07;57.85;;;2.80;96.40;;;;;;5095834;28;20118;-71
2020/12/28 06:22:39;;;;;;;110.63;56.15;;;2.80;96.80;;;;;;5097298;28;20142;-71
2020/12/28 06:25:07;;;;;;;115.93;58.47;;;2.90;96.70;;;;;;5097238;28;20069;-71
2020/12/28 06:27:41;;;;;;;113.15;54.28;;;2.90;96.50;;;;;;5095541;28;20081;-71
2020/12/28 06:30:19;;;;;;;104.47;49.95;;;2.90;96.60;;;;;;5096010;28;20032;-72
2020/12/28 06:33:04;;;;;;;123.88;64.25;;;3.00;96.40;;;;;;5097705;28;20375;-70
2020/12/28 06:35:31;;;;;;;133.57;75.10;;;3.00;96.40;;;;;;5095892;28;20024;-70
2020/12/28 06:38:00;;;;;;;117.30;63.00;;;3.10;96.40;;;;;;5096802;28;20047;-71
2020/12/28 06:40:34;;;;;;;106.57;55.28;;;3.10;96.30;;;;;;5095652;28;20089;-71
2020/12/28 06:43:15;;;;;;;149.65;85.45;;;3.10;96.20;;;;;;5095484;28;20024;-73
2020/12/28 06:45:42;;;;;;;117.75;62.47;;;3.10;96.10;;;;;;5096852;28;20051;-71
2020/12/28 06:48:22;;;;;;;122.93;62.20;;;3.20;96.20;;;;;;5095127;28;20418;-71
2020/12/28 06:50:49;;;;;;;137.65;71.30;;;3.20;95.80;;;;;;5095404;28;20032;-72
2020/12/28 06:53:23;;;;;;;187.82;90.70;;;3.30;95.90;;;;;;5095468;28;20365;-71
2020/12/28 06:55:49;;;;;;;235.43;109.87;;;3.30;95.80;;;;;;5095664;28;20371;-71
2020/12/28 06:58:15;;;;;;;274.10;129.52;;;3.30;95.80;;;;;;5095910;28;20265;-72
2020/12/28 07:00:41;;;;;;;212.57;104.18;;;3.40;95.80;;;;;;5096587;28;20031;-72
2020/12/28 07:03:17;;;;;;;231.70;111.63;;;3.40;95.80;;;;;;5094903;28;20024;-72
2020/12/28 07:05:44;;;;;;;195.77;91.82;;;3.40;95.70;;;;;;5095761;28;20024;-70
2020/12/28 07:08:10;;;;;;;150.60;81.75;;;3.40;95.80;;;;;;5095066;28;20124;-70
2020/12/28 07:10:36;;;;;;;158.20;88.63;;;3.50;95.70;;;;;;5094820;28;20024;-73
2020/12/28 07:13:06;;;;;;;163.18;92.40;;;3.50;95.60;;;;;;5096346;28;20464;-73
2020/12/28 07:15:32;;;;;;;160.00;90.80;;;3.50;95.70;;;;;;5095347;28;20024;-71
2020/12/28 07:18:05;;;;;;;194.73;105.53;;;3.50;95.90;;;;;;5094614;28;20529;-72
2020/12/28 07:20:31;;;;;;;224.32;119.55;;;3.60;95.90;;;;;;5094923;28;20073;-72
2020/12/28 07:22:57;;;;;;;224.45;118.70;;;3.60;95.70;;;;;;5095415;28;20455;-70
2020/12/28 07:25:22;;;;;;;222.00;107.57;;;3.70;95.80;;;;;;5095890;28;20387;-72
2020/12/28 07:27:48;;;;;;;205.73;108.50;;;3.70;95.60;;;;;;5094699;28;20081;-71
2020/12/28 07:30:14;;;;;;;202.95;112.10;;;3.80;95.50;;;;;;5095707;28;20032;-71
2020/12/28 07:32:40;;;;;;;238.75;126.05;;;3.90;95.40;;;;;;5094642;28;20024;-70
2020/12/28 07:35:07;;;;;;;188.50;103.47;;;3.90;95.40;;;;;;5094622;28;20027;-71
2020/12/28 07:37:41;;;;;;;169.75;90.05;;;3.90;95.30;;;;;;5095617;28;20028;-72
2020/12/28 07:40:08;;;;;;;163.02;86.32;;;4.00;95.40;;;;;;5095840;28;20036;-71
2020/12/28 07:42:34;;;;;;;158.77;86.22;;;4.10;95.20;;;;;;5094523;28;20020;-74
2020/12/28 07:45:06;;;;;;;162.25;88.93;;;4.10;95.30;;;;;;5094076;28;20052;-73
2020/12/28 07:47:54;;;;;;;169.10;94.20;;;4.10;95.50;;;;;;5094859;28;20031;-73
2020/12/28 07:50:21;;;;;;;208.20;112.63;;;4.10;95.00;;;;;;5094375;28;20024;-75
2020/12/28 07:53:03;;;;;;;204.18;111.35;;;4.20;95.10;;;;;;5093910;28;20024;-73
2020/12/28 07:55:38;;;;;;;166.48;95.15;;;4.30;95.10;;;;;;5094856;28;20032;-74
2020/12/28 07:58:28;;;;;;;274.48;148.07;;;4.30;95.00;;;;;;5093900;28;20081;-74
2020/12/28 08:00:56;;;;;;;159.98;90.63;;;4.40;95.40;;;;;;5094156;28;20036;-73
2020/12/28 08:03:44;;;;;;;142.88;82.20;;;4.40;95.10;;;;;;5094012;28;20425;-73
2020/12/28 08:06:12;;;;;;;113.50;61.60;;;4.50;95.40;;;;;;5093815;28;20036;-72
2020/12/28 08:08:40;;;;;;;112.30;63.72;;;4.50;95.30;;;;;;5093860;28;20024;-73
2020/12/28 08:11:06;;;;;;;179.43;102.45;;;4.60;95.10;;;;;;5093587;28;20166;-74
2020/12/28 08:13:33;;;;;;;148.30;86.75;;;4.60;95.20;;;;;;5093634;28;20114;-73
2020/12/28 08:16:12;;;;;;;158.38;94.93;;;4.60;94.80;;;;;;5093837;28;20028;-73
2020/12/28 08:18:55;;;;;;;199.63;121.10;;;4.70;94.60;;;;;;5093729;28;20058;-74
2020/12/28 08:21:24;;;;;;;118.85;67.40;;;4.90;95.70;;;;;;5094815;28;20067;-69
2020/12/28 08:23:55;;;;;;;117.63;64.68;;;5.00;95.30;;;;;;5093858;28;20418;-69
2020/12/28 08:26:26;;;;;;;93.35;49.00;;;5.10;95.10;;;;;;5093286;28;20028;-71
2020/12/28 08:28:53;;;;;;;122.63;71.13;;;5.50;94.30;;;;;;5093157;28;20070;-71
2020/12/28 08:31:34;;;;;;;123.03;68.82;;;5.60;93.90;;;;;;5093585;28;20024;-72
2020/12/28 08:34:11;;;;;;;120.35;67.63;;;5.80;93.70;;;;;;5093063;28;20028;-72
2020/12/28 08:36:39;;;;;;;128.23;73.00;;;5.90;93.30;;;;;;5094779;28;20051;-72
2020/12/28 08:39:13;;;;;;;114.47;66.32;;;6.10;93.20;;;;;;5093566;28;20028;-71
2020/12/28 08:41:51;;;;;;;77.50;47.17;;;6.10;93.00;;;;;;5093031;28;20115;-71
2020/12/28 08:44:26;;;;;;;36.58;22.08;;;6.20;93.00;;;;;;5093068;28;20044;-71
2020/12/28 08:46:52;;;;;;;30.48;18.20;;;6.30;92.30;;;;;;5093090;28;20064;-69
2020/12/28 08:49:32;;;;;;;24.52;15.75;;;6.40;92.00;;;;;;5093841;28;20035;-72
2020/12/28 08:52:11;;;;;;;37.42;23.95;;;6.60;91.40;;;;;;5093231;28;20059;-72
2020/12/28 08:54:38;;;;;;;40.08;24.90;;;6.70;91.30;;;;;;5092882;28;20020;-72
2020/12/28 08:57:04;;;;;;;39.28;24.23;;;6.70;91.20;;;;;;5093078;28;20036;-72
2020/12/28 08:59:30;;;;;;;38.72;24.38;;;6.80;91.10;;;;;;5093107;28;20082;-72
2020/12/28 09:01:57;;;;;;;37.33;22.23;;;6.90;91.00;;;;;;5092714;28;20031;-72
2020/12/28 09:04:23;;;;;;;42.03;24.38;;;7.00;90.60;;;;;;5092999;28;20353;-72
2020/12/28 09:06:50;;;;;;;34.50;21.33;;;7.10;90.40;;;;;;5092949;28;20028;-72
2020/12/28 09:09:16;;;;;;;39.58;23.55;;;7.10;90.50;;;;;;5094043;28;20107;-72
2020/12/28 09:11:43;;;;;;;64.75;36.63;;;7.20;90.40;;;;;;5094494;28;20028;-72
2020/12/28 09:14:09;;;;;;;56.05;29.80;;;7.20;90.20;;;;;;5092677;28;20078;-72
2020/12/28 09:16:36;;;;;;;66.53;34.10;;;7.20;90.20;;;;;;5092491;28;20056;-72
2020/12/28 09:19:02;;;;;;;46.58;28.40;;;7.30;90.10;;;;;;5094090;28;20085;-72
2020/12/28 09:21:28;;;;;;;44.58;26.40;;;7.40;89.50;;;;;;5094215;28;20048;-74
2020/12/28 09:23:54;;;;;;;38.92;22.40;;;7.50;89.10;;;;;;5092432;28;20058;-74
2020/12/28 09:26:20;;;;;;;44.97;25.90;;;7.70;88.20;;;;;;5092268;28;20078;-74
2020/12/28 09:28:45;;;;;;;38.78;24.50;;;7.70;88.50;;;;;;5091123;28;20024;-72
2020/12/28 09:31:11;;;;;;;24.20;15.05;;;7.70;88.70;;;;;;5092361;28;20032;-72
2020/12/28 09:33:37;;;;;;;34.95;18.90;;;7.80;87.90;;;;;;5093944;28;20020;-72
2020/12/28 09:36:03;;;;;;;42.47;23.10;;;7.90;86.90;;;;;;5091905;28;20020;-74
2020/12/28 09:38:30;;;;;;;35.92;19.27;;;7.90;87.10;;;;;;5091753;28;20039;-74
2020/12/28 09:40:55;;;;;;;40.58;20.50;;;8.00;86.70;;;;;;5096371;28;20460;-73
2020/12/28 09:43:21;;;;;;;106.00;49.58;;;8.00;88.50;;;;;;5096407;28;20020;-73
2020/12/28 09:45:47;;;;;;;84.00;35.13;;;8.00;88.20;;;;;;5096529;28;20048;-74
2020/12/28 09:48:13;;;;;;;52.65;24.95;;;8.20;87.30;;;;;;5096701;28;20415;-73
2020/12/28 09:50:39;;;;;;;80.18;36.40;;;8.30;86.70;;;;;;5096318;28;20032;-73
2020/12/28 09:53:05;;;;;;;89.00;36.25;;;8.40;86.80;;;;;;5096745;28;20028;-74
2020/12/28 09:55:31;;;;;;;68.30;31.10;;;9.00;85.90;;;;;;5096526;28;20494;-74
2020/12/28 09:57:56;;;;;;;42.13;19.58;;;9.70;88.30;;;;;;5096183;28;20035;-74
2020/12/28 10:00:22;;;;;;;41.70;20.63;;;10.20;84.90;;;;;;5096491;28;20020;-75
2020/12/28 10:02:48;;;;;;;54.60;23.48;;;10.60;79.30;;;;;;5096645;28;20031;-74
2020/12/28 10:05:14;;;;;;;21.20;12.38;;;11.00;79.50;;;;;;5094343;28;20132;-73
2020/12/28 10:07:40;;;;;;;26.17;15.05;;;10.90;78.40;;;;;;5094795;28;20417;-75
2020/12/28 10:10:07;;;;;;;42.75;24.13;;;10.70;79.30;;;;;;5094917;28;20115;-74
2020/12/28 10:12:34;;;;;;;46.40;24.50;;;10.40;77.80;;;;;;5094686;28;20735;-75
2020/12/28 10:15:00;;;;;;;41.72;25.23;;;10.10;79.70;;;;;;5095866;28;20046;-74
2020/12/28 10:17:25;;;;;;;36.45;22.45;;;10.00;79.70;;;;;;5094717;28;20016;-74
2020/12/28 10:19:51;;;;;;;42.88;26.50;;;9.90;79.80;;;;;;5094558;28;20020;-74
2020/12/28 10:22:17;;;;;;;43.90;24.38;;;9.90;81.00;;;;;;5094705;28;20028;-74
2020/12/28 10:24:43;;;;;;;37.38;20.30;;;10.00;80.50;;;;;;5095110;28;20035;-75
2020/12/28 10:27:08;;;;;;;29.45;18.83;;;10.20;79.80;;;;;;5095413;28;20032;-74
2020/12/28 10:29:34;;;;;;;23.65;14.48;;;10.20;79.80;;;;;;5095916;28;20058;-75
2020/12/28 10:32:00;;;;;;;41.20;25.48;;;10.30;81.00;;;;;;5095606;28;20028;-75
2020/12/28 10:34:26;;;;;;;36.33;22.25;;;10.30;80.10;;;;;;5095834;28;20027;-75
2020/12/28 10:36:52;;;;;;;30.42;18.33;;;10.40;77.70;;;;;;5095814;28;20035;-75
2020/12/28 10:39:18;;;;;;;36.60;22.15;;;10.50;78.80;;;;;;5095281;28;20040;-74
2020/12/28 10:41:44;;;;;;;31.08;16.98;;;10.40;79.90;;;;;;5096250;28;20042;-74
2020/12/28 10:44:10;;;;;;;26.85;16.75;;;10.30;80.30;;;;;;5095741;28;20031;-75
2020/12/28 10:46:38;;;;;;;29.98;18.92;;;10.20;79.30;;;;;;5095023;28;20467;-74
2020/12/28 10:49:04;;;;;;;37.97;20.38;;;10.10;79.40;;;;;;5095469;28;20070;-73
2020/12/28 10:51:30;;;;;;;38.08;21.20;;;10.00;79.30;;;;;;5095118;28;20032;-73
2020/12/28 10:53:56;;;;;;;32.78;17.25;;;9.90;81.10;;;;;;5096495;28;20373;-74
2020/12/28 10:56:23;;;;;;;31.33;18.33;;;9.80;80.00;;;;;;5097129;28;20028;-73
2020/12/28 10:58:49;;;;;;;27.67;15.45;;;9.80;79.90;;;;;;5095361;28;20024;-74
2020/12/28 11:01:14;;;;;;;26.50;16.45;;;9.80;80.30;;;;;;5095006;28;20028;-74
2020/12/28 11:03:40;;;;;;;24.17;13.55;;;9.80;81.00;;;;;;5096119;28;20123;-75
2020/12/28 11:06:06;;;;;;;16.02;8.77;;;9.70;80.70;;;;;;5095557;28;20030;-73
2020/12/28 11:08:31;;;;;;;16.20;9.35;;;9.70;80.70;;;;;;5094810;28;20379;-72
2020/12/28 11:10:58;;;;;;;23.65;12.90;;;9.70;80.20;;;;;;5095142;28;20026;-74
2020/12/28 11:13:24;;;;;;;16.40;9.95;;;9.60;80.60;;;;;;5095073;28;20464;-74
2020/12/28 11:15:50;;;;;;;19.60;12.93;;;9.60;81.20;;;;;;5094430;28;20376;-73
2020/12/28 11:18:15;;;;;;;24.20;14.45;;;9.50;81.80;;;;;;5093593;28;20024;-73
2020/12/28 11:20:41;;;;;;;22.13;13.10;;;9.50;81.20;;;;;;5093570;28;20078;-73
2020/12/28 11:23:07;;;;;;;24.60;15.10;;;9.40;81.50;;;;;;5094366;28;20038;-74
2020/12/28 11:25:33;;;;;;;21.80;14.73;;;9.40;81.40;;;;;;5094958;28;20425;-73
2020/12/28 11:27:58;;;;;;;22.98;13.80;;;9.40;82.50;;;;;;5094438;28;20539;-75
2020/12/28 11:30:24;;;;;;;29.20;15.05;;;9.40;82.60;;;;;;5094771;28;20131;-74
2020/12/28 11:32:50;;;;;;;22.10;13.45;;;9.30;82.50;;;;;;5094754;28;20081;-74
2020/12/28 11:35:16;;;;;;;22.92;13.15;;;9.20;82.90;;;;;;5096259;28;20237;-71
2020/12/28 11:37:41;;;;;;;24.05;14.32;;;9.20;83.20;;;;;;5094638;28;20021;-72
2020/12/28 11:40:07;;;;;;;34.13;18.73;;;9.30;83.10;;;;;;5094604;28;20024;-75
2020/12/28 11:42:33;;;;;;;23.45;13.00;;;9.30;82.80;;;;;;5095402;28;20099;-75
2020/12/28 11:44:59;;;;;;;26.20;16.38;;;9.20;83.00;;;;;;5094257;28;20135;-74
2020/12/28 11:47:25;;;;;;;26.75;15.80;;;9.20;83.00;;;;;;5093785;28;20036;-73
2020/12/28 11:49:51;;;;;;;27.58;18.13;;;9.20;82.80;;;;;;5094020;28;20142;-74
2020/12/28 11:52:19;;;;;;;25.20;17.15;;;9.20;83.50;;;;;;5094322;28;20024;-74
2020/12/28 11:54:45;;;;;;;40.70;23.58;;;9.20;82.90;;;;;;5094299;28;20467;-73
2020/12/28 11:57:11;;;;;;;34.72;20.08;;;9.20;83.60;;;;;;5093999;28;20046;-74
2020/12/28 11:59:37;;;;;;;29.40;16.58;;;9.20;83.00;;;;;;5095755;28;20024;-73
2020/12/28 12:02:02;;;;;;;33.80;19.95;;;9.30;82.40;;;;;;5094317;28;20036;-72
2020/12/28 12:07:12;;;;;;;32.80;17.00;;;9.30;82.80;;;;;;5095419;28;20399;-73
2020/12/28 12:09:38;;;;;;;24.80;14.55;;;9.20;82.80;;;;;;5094029;28;20035;-72
2020/12/28 12:12:04;;;;;;;24.10;13.43;;;9.20;83.30;;;;;;5093681;28;20024;-73
2020/12/28 12:17:51;;;;;;;33.13;18.48;;;9.30;82.90;;;;;;5094857;28;20034;-74
2020/12/28 12:20:17;;;;;;;30.50;16.65;;;9.20;82.70;;;;;;5093778;28;20036;-74
2020/12/28 12:22:43;;;;;;;36.70;18.95;;;9.30;82.40;;;;;;5093480;28;20070;-74
2020/12/28 12:25:09;;;;;;;56.00;27.02;;;9.30;81.50;;;;;;5092907;28;20097;-72
2020/12/28 12:27:34;;;;;;;32.22;18.08;;;9.30;82.80;;;;;;5093350;28;20059;-73
2020/12/28 12:30:00;;;;;;;29.13;15.65;;;9.30;82.50;;;;;;5093489;28;20035;-72
2020/12/28 12:32:28;;;;;;;29.55;17.70;;;9.20;81.80;;;;;;5093137;28;20053;-72
2020/12/28 12:34:54;;;;;;;27.67;15.73;;;9.30;81.60;;;;;;5093443;28;20028;-72
2020/12/28 12:37:20;;;;;;;28.85;14.15;;;9.30;81.80;;;;;;5094636;28;20046;-72
2020/12/28 12:39:46;;;;;;;23.63;12.82;;;9.30;81.90;;;;;;5093114;28;20028;-73